Arnolds Park, Iowa
Current Conditions -  °F | °C
As of 3:22 AM on Friday 19 Dec 2014 (Local Time) from KSPW Reporting Station
Overcast Overcast  
Wind Chill: 21°   Ceiling: 900
Heat Index: 28°   Visibility: 7mi
Dew Point: 25°   Wind: 7mph
Humidity: 88%   Direction: 170°S
Pressure: 30.2"   Gusts: NA
Location:  43.37°N, 95.12°W
Report Text: KSPW 190922Z AUTO 17006KT 7SM OVC009 M02/M04 A3020 RMK AO2 T10221039 TSNO
Loading
Personal Weather Stations






























Interactive Weather Map New forecast layout! Learn more

10-Day Weather Forecast

Advertisements
Track Severe Weather on mobile